createdAt,value
2017-12-27T00:01:38.148Z,73.40
2017-12-27T00:04:11.363Z,73.80
2017-12-27T00:06:44.505Z,74.40
2017-12-27T00:09:17.707Z,72.90
2017-12-27T00:14:55.709Z,73.00
2017-12-27T00:17:29.032Z,73.00
2017-12-27T00:20:02.236Z,72.50
2017-12-27T00:22:35.544Z,72.90
2017-12-27T00:25:08.678Z,72.90
2017-12-27T00:27:42.568Z,71.90
2017-12-27T00:30:16.656Z,71.90
2017-12-27T00:32:44.206Z,71.90
2017-12-27T00:35:11.807Z,71.70
2017-12-27T00:37:40.132Z,72.90
2017-12-27T00:40:07.684Z,72.90
2017-12-27T00:42:35.259Z,72.70
2017-12-27T00:45:02.803Z,72.80
2017-12-27T00:47:30.375Z,74.10
2017-12-27T00:49:57.945Z,73.70
2017-12-27T00:52:25.492Z,72.80
2017-12-27T00:54:53.069Z,72.70
2017-12-27T00:57:20.622Z,73.20
2017-12-27T00:59:48.163Z,73.80
2017-12-27T01:02:15.737Z,73.60
2017-12-27T01:04:43.279Z,73.70
2017-12-27T01:07:10.827Z,73.30
2017-12-27T01:09:38.413Z,73.40
2017-12-27T01:12:05.960Z,73.80
2017-12-27T01:14:33.598Z,74.50
2017-12-27T01:17:01.134Z,74.70
2017-12-27T01:19:29.460Z,75.10
2017-12-27T01:21:57.003Z,75.00
2017-12-27T01:24:24.599Z,75.00
2017-12-27T01:26:52.173Z,73.90
2017-12-27T01:29:19.736Z,73.40
2017-12-27T01:31:47.275Z,73.70
2017-12-27T01:34:14.829Z,72.80
2017-12-27T01:36:42.391Z,73.00
2017-12-27T01:39:09.949Z,72.70
2017-12-27T01:41:37.533Z,72.50
2017-12-27T01:44:05.076Z,72.90
2017-12-27T01:46:32.649Z,73.20
2017-12-27T01:49:00.196Z,72.30
2017-12-27T01:51:27.779Z,72.40
2017-12-27T01:53:55.350Z,73.00
2017-12-27T01:56:23.673Z,72.00
2017-12-27T01:58:51.231Z,72.00
2017-12-27T02:01:18.781Z,71.90
2017-12-27T02:03:46.347Z,72.20
2017-12-27T02:06:13.902Z,72.40
2017-12-27T02:08:41.478Z,72.40
2017-12-27T02:11:09.037Z,72.70
2017-12-27T02:13:36.639Z,72.90
2017-12-27T02:16:04.965Z,72.60
2017-12-27T02:18:32.543Z,72.60
2017-12-27T02:21:00.113Z,72.90
2017-12-27T02:23:27.652Z,71.80
2017-12-27T02:25:55.220Z,72.40
2017-12-27T02:28:22.786Z,72.50
2017-12-27T02:30:50.357Z,72.50
2017-12-27T02:33:17.922Z,72.50
2017-12-27T02:35:45.497Z,72.10
2017-12-27T02:38:13.831Z,72.90
2017-12-27T02:40:41.403Z,72.80
2017-12-27T02:43:08.971Z,73.10
2017-12-27T02:45:36.526Z,72.50
2017-12-27T02:48:04.119Z,72.70
2017-12-27T02:50:32.431Z,72.30
2017-12-27T02:53:00.022Z,72.30
2017-12-27T02:55:27.597Z,72.20
2017-12-27T02:57:55.182Z,71.90
2017-12-27T03:00:23.493Z,72.90
2017-12-27T03:02:51.059Z,72.80
2017-12-27T03:05:18.613Z,72.50
2017-12-27T03:07:46.184Z,72.60
2017-12-27T03:10:13.753Z,72.90
2017-12-27T03:12:41.304Z,72.80
2017-12-27T03:15:08.888Z,72.90
2017-12-27T03:17:36.468Z,73.60
2017-12-27T03:20:04.815Z,73.40
2017-12-27T03:22:32.378Z,73.40
2017-12-27T03:24:59.950Z,73.90
2017-12-27T03:27:27.524Z,73.60
2017-12-27T03:29:55.842Z,73.40
2017-12-27T03:32:23.413Z,73.40
2017-12-27T03:34:50.989Z,73.80
2017-12-27T03:37:18.569Z,73.00
2017-12-27T03:39:46.139Z,72.80
2017-12-27T03:42:14.482Z,72.90
2017-12-27T03:44:42.051Z,72.80
2017-12-27T03:47:09.616Z,73.30
2017-12-27T03:49:37.177Z,72.50
2017-12-27T03:52:04.770Z,72.40
2017-12-27T03:54:32.338Z,72.80
2017-12-27T03:56:59.880Z,72.50
2017-12-27T03:59:28.221Z,73.20
2017-12-27T04:01:55.774Z,73.20
2017-12-27T04:04:23.355Z,72.80
2017-12-27T04:06:50.905Z,72.90
2017-12-27T04:09:18.468Z,72.90
2017-12-27T04:11:46.010Z,73.00
2017-12-27T04:14:13.614Z,73.30
2017-12-27T04:16:41.934Z,73.10
2017-12-27T04:19:09.500Z,73.10
2017-12-27T04:21:37.068Z,72.80
2017-12-27T04:24:04.629Z,73.00
2017-12-27T04:26:32.212Z,73.50
2017-12-27T04:28:59.765Z,73.20
2017-12-27T04:31:27.343Z,73.40
2017-12-27T04:33:55.655Z,73.90
2017-12-27T04:36:23.237Z,73.90
2017-12-27T04:38:50.780Z,73.70
2017-12-27T04:41:18.333Z,73.40
2017-12-27T04:43:45.910Z,73.70
2017-12-27T04:46:13.466Z,73.90
2017-12-27T04:48:41.047Z,73.70
2017-12-27T04:51:08.597Z,73.70
2017-12-27T04:53:36.165Z,73.80
2017-12-27T04:56:03.740Z,74.40
2017-12-27T04:58:31.311Z,74.30
2017-12-27T05:00:59.654Z,74.00
2017-12-27T05:03:27.219Z,74.00
2017-12-27T05:05:54.816Z,74.40
2017-12-27T05:08:23.132Z,74.50
2017-12-27T05:10:50.709Z,74.50
2017-12-27T05:13:18.249Z,74.20
2017-12-27T05:15:45.829Z,74.50
2017-12-27T05:18:13.380Z,74.80
2017-12-27T05:20:40.975Z,74.60
2017-12-27T05:23:08.537Z,74.50
2017-12-27T05:25:36.089Z,75.10
2017-12-27T05:28:03.642Z,75.00
2017-12-27T05:30:31.197Z,74.70
2017-12-27T05:32:58.773Z,74.70
2017-12-27T05:35:26.316Z,75.10
2017-12-27T05:37:53.893Z,75.10
2017-12-27T05:40:21.449Z,75.10
2017-12-27T05:42:49.020Z,74.90
2017-12-27T05:45:17.330Z,75.20
2017-12-27T05:47:44.906Z,75.10
2017-12-27T05:50:12.499Z,75.40
2017-12-27T05:52:40.067Z,75.30
2017-12-27T05:55:07.655Z,75.40
2017-12-27T05:57:35.971Z,75.60
2017-12-27T06:00:03.551Z,75.60
2017-12-27T06:02:31.131Z,75.90
2017-12-27T06:04:58.706Z,75.30
2017-12-27T06:07:27.019Z,75.20
2017-12-27T06:09:54.586Z,75.30
2017-12-27T06:12:22.132Z,75.20
2017-12-27T06:14:49.701Z,75.40
2017-12-27T06:17:17.295Z,75.40
2017-12-27T06:19:44.843Z,75.20
2017-12-27T06:22:12.408Z,75.50
2017-12-27T06:24:39.983Z,75.50
2017-12-27T06:27:07.547Z,75.20
2017-12-27T06:29:35.103Z,75.90
2017-12-27T06:32:02.671Z,76.10
2017-12-27T06:34:30.974Z,75.70
2017-12-27T06:36:58.543Z,75.70
2017-12-27T06:39:26.127Z,75.80
2017-12-27T06:41:53.689Z,75.70
2017-12-27T06:44:21.271Z,75.80
2017-12-27T06:46:48.818Z,75.70
2017-12-27T06:49:16.385Z,75.80
2017-12-27T06:51:43.940Z,75.60
2017-12-27T06:54:11.509Z,75.50
2017-12-27T06:56:39.071Z,75.40
2017-12-27T06:59:06.649Z,75.50
2017-12-27T07:01:34.978Z,75.80
2017-12-27T07:04:02.538Z,75.80
2017-12-27T07:06:30.103Z,75.80
2017-12-27T07:08:57.647Z,75.70
2017-12-27T07:11:25.232Z,75.80
2017-12-27T07:13:52.797Z,76.00
2017-12-27T07:16:20.354Z,75.90
2017-12-27T07:18:47.931Z,75.80
2017-12-27T07:21:15.524Z,76.00
2017-12-27T07:23:43.085Z,76.20
2017-12-27T07:26:10.663Z,76.30
2017-12-27T07:28:38.247Z,76.10
2017-12-27T07:31:05.813Z,76.20
2017-12-27T07:33:33.375Z,76.30
2017-12-27T07:36:00.952Z,76.50
2017-12-27T07:38:28.529Z,76.50
2017-12-27T07:40:56.849Z,77.60
2017-12-27T07:43:24.519Z,76.90
2017-12-27T07:45:52.082Z,77.10
2017-12-27T07:48:19.674Z,77.10
2017-12-27T07:50:48.015Z,77.30
2017-12-27T07:53:15.560Z,77.30
2017-12-27T07:55:43.147Z,77.50
2017-12-27T07:58:10.725Z,77.60
2017-12-27T08:00:38.286Z,77.50
2017-12-27T08:03:05.859Z,77.60
2017-12-27T08:05:34.187Z,77.50
2017-12-27T08:08:01.751Z,77.60
2017-12-27T08:10:29.339Z,77.50
2017-12-27T08:12:56.898Z,77.50
2017-12-27T08:15:24.448Z,77.60
2017-12-27T08:17:52.022Z,77.70
2017-12-27T08:20:19.586Z,77.70
2017-12-27T08:22:47.934Z,78.10
2017-12-27T08:25:15.482Z,78.10
2017-12-27T08:27:43.072Z,78.30
2017-12-27T08:30:10.633Z,78.40
2017-12-27T08:32:38.194Z,78.30
2017-12-27T08:35:05.758Z,78.30
2017-12-27T08:37:34.127Z,78.20
2017-12-27T08:40:01.686Z,78.20
2017-12-27T08:42:29.241Z,78.30
2017-12-27T08:44:56.807Z,78.50
2017-12-27T08:47:24.359Z,78.60
2017-12-27T08:49:51.921Z,78.50
2017-12-27T08:52:19.473Z,78.10
2017-12-27T08:54:47.044Z,77.70
2017-12-27T08:57:14.586Z,77.60
2017-12-27T08:59:42.181Z,77.90
2017-12-27T09:02:10.520Z,78.20
2017-12-27T09:04:38.092Z,78.20
2017-12-27T09:07:05.662Z,78.40
2017-12-27T09:09:33.219Z,78.60
2017-12-27T09:12:00.808Z,78.80
2017-12-27T09:14:29.119Z,79.20
2017-12-27T09:16:56.706Z,79.20
2017-12-27T09:19:24.267Z,79.80
2017-12-27T09:21:51.860Z,79.40
2017-12-27T09:24:20.186Z,79.60
2017-12-27T09:26:47.746Z,79.60
2017-12-27T09:29:15.300Z,79.20
2017-12-27T09:31:42.840Z,78.70
2017-12-27T09:34:10.392Z,78.70
2017-12-27T09:36:37.959Z,79.00
2017-12-27T09:39:05.535Z,81.50
2017-12-27T09:41:33.091Z,81.80
2017-12-27T09:44:00.670Z,80.50
2017-12-27T09:46:28.229Z,81.80
2017-12-27T09:48:55.771Z,80.30
2017-12-27T09:51:23.344Z,79.30
2017-12-27T09:53:50.917Z,80.10
2017-12-27T09:56:18.507Z,80.80
2017-12-27T09:58:46.841Z,79.50
2017-12-27T10:01:14.417Z,79.50
2017-12-27T10:03:41.964Z,80.00
2017-12-27T10:06:11.052Z,80.80
2017-12-27T10:08:38.596Z,80.40
2017-12-27T10:11:06.149Z,80.80
2017-12-27T10:13:33.708Z,80.30
2017-12-27T10:16:01.249Z,80.40
2017-12-27T10:18:28.837Z,80.00
2017-12-27T10:20:56.394Z,80.30
2017-12-27T10:23:23.960Z,80.60
2017-12-27T10:25:52.350Z,80.60
2017-12-27T10:28:19.912Z,80.90
2017-12-27T10:30:48.246Z,81.40
2017-12-27T10:33:15.796Z,81.40
2017-12-27T10:35:44.120Z,81.30
2017-12-27T10:38:11.691Z,81.20
2017-12-27T10:40:40.024Z,81.60
2017-12-27T10:43:07.644Z,81.60
2017-12-27T10:45:35.198Z,82.00
2017-12-27T10:48:02.743Z,81.50
2017-12-27T10:50:30.300Z,81.90
2017-12-27T10:52:57.852Z,82.40
2017-12-27T10:55:25.433Z,81.50
2017-12-27T10:57:52.974Z,82.50
2017-12-27T11:00:20.539Z,83.70
2017-12-27T11:02:48.105Z,84.30
2017-12-27T11:05:15.663Z,86.00
2017-12-27T11:07:43.220Z,87.90
2017-12-27T11:10:10.764Z,88.90
2017-12-27T11:12:38.328Z,88.30
2017-12-27T11:15:05.878Z,87.40
2017-12-27T11:17:33.467Z,87.30
2017-12-27T11:20:01.032Z,86.00
2017-12-27T11:22:28.575Z,84.20
2017-12-27T11:24:56.164Z,82.50
2017-12-27T11:27:23.708Z,80.60
2017-12-27T11:29:51.286Z,81.10
2017-12-27T11:32:18.845Z,80.20
2017-12-27T11:34:46.411Z,80.50
2017-12-27T11:37:14.755Z,76.90
2017-12-27T11:39:42.350Z,76.90
2017-12-27T11:42:10.691Z,73.90
2017-12-27T11:44:39.017Z,73.00
2017-12-27T11:47:07.357Z,70.80
2017-12-27T11:49:35.999Z,70.80
2017-12-27T11:52:03.588Z,71.00
2017-12-27T11:54:31.135Z,70.20
2017-12-27T11:56:58.709Z,68.90
2017-12-27T11:59:26.251Z,69.40
2017-12-27T12:01:53.808Z,68.30
2017-12-27T12:04:21.365Z,68.60
2017-12-27T12:06:48.927Z,66.60
2017-12-27T12:09:16.471Z,67.00
2017-12-27T12:11:44.023Z,65.90
2017-12-27T12:14:11.579Z,65.80
2017-12-27T12:16:39.155Z,65.90
2017-12-27T12:19:06.724Z,66.50
2017-12-27T12:21:34.299Z,65.20
2017-12-27T12:24:01.865Z,66.00
2017-12-27T12:26:29.433Z,67.70
2017-12-27T12:28:57.025Z,67.60
2017-12-27T12:31:25.354Z,67.20
2017-12-27T12:33:52.921Z,67.00
2017-12-27T12:36:20.492Z,65.60
2017-12-27T12:38:48.048Z,67.70
2017-12-27T12:41:15.613Z,67.60
2017-12-27T12:43:43.166Z,68.10
2017-12-27T12:46:10.741Z,66.40
2017-12-27T12:48:38.311Z,66.90
2017-12-27T12:51:06.646Z,64.90
2017-12-27T12:53:34.198Z,64.80
2017-12-27T12:56:01.761Z,64.00
2017-12-27T12:58:29.344Z,64.60
2017-12-27T13:00:56.896Z,63.40
2017-12-27T13:03:24.447Z,63.00
2017-12-27T13:05:51.990Z,63.80
2017-12-27T13:08:19.565Z,63.80
2017-12-27T13:10:47.126Z,62.80
2017-12-27T13:13:14.685Z,63.30
2017-12-27T13:15:42.237Z,63.00
2017-12-27T13:18:09.794Z,64.10
2017-12-27T13:20:37.363Z,64.00
2017-12-27T13:23:04.912Z,63.90
2017-12-27T13:25:32.497Z,64.20
2017-12-27T13:28:00.051Z,65.90
2017-12-27T13:30:27.629Z,66.20
2017-12-27T13:32:55.200Z,66.00
2017-12-27T13:35:22.792Z,67.80
2017-12-27T13:37:50.369Z,67.80
2017-12-27T13:40:17.954Z,67.50
2017-12-27T13:42:45.502Z,66.00
2017-12-27T13:45:13.075Z,68.70
2017-12-27T13:47:40.716Z,70.00
2017-12-27T13:50:08.270Z,68.70
2017-12-27T13:52:35.854Z,67.70
2017-12-27T13:55:04.181Z,68.90
2017-12-27T13:57:31.765Z,69.00
2017-12-27T13:59:59.323Z,71.10
2017-12-27T14:02:26.887Z,71.30
2017-12-27T14:04:54.449Z,69.80
2017-12-27T14:07:22.015Z,69.30
2017-12-27T14:09:49.590Z,69.40
2017-12-27T14:12:17.173Z,69.00
2017-12-27T14:14:44.749Z,69.90
2017-12-27T14:17:13.073Z,69.70
2017-12-27T14:19:40.645Z,69.70
2017-12-27T14:22:08.200Z,69.90
2017-12-27T14:24:35.783Z,70.50
2017-12-27T14:27:03.350Z,71.50
2017-12-27T14:29:30.934Z,70.40
2017-12-27T14:31:58.502Z,70.40
2017-12-27T14:34:26.055Z,70.00
2017-12-27T14:36:53.626Z,70.60
2017-12-27T14:39:21.276Z,70.10
2017-12-27T14:41:48.924Z,69.80
2017-12-27T14:44:17.253Z,70.90
2017-12-27T14:46:44.833Z,70.90
2017-12-27T14:49:12.379Z,71.20
2017-12-27T14:51:39.947Z,71.10
2017-12-27T14:54:07.483Z,71.20
2017-12-27T14:56:35.031Z,71.90
2017-12-27T14:59:02.600Z,72.10
2017-12-27T15:01:30.183Z,72.00
2017-12-27T15:03:57.770Z,72.70
2017-12-27T15:06:26.103Z,72.70
2017-12-27T15:08:53.682Z,72.70
2017-12-27T15:11:21.852Z,73.10
2017-12-27T15:13:49.825Z,72.60
2017-12-27T15:16:18.188Z,72.40
2017-12-27T15:18:46.138Z,72.80
2017-12-27T15:21:13.706Z,73.00
2017-12-27T15:23:41.247Z,73.20
2017-12-27T15:26:08.823Z,73.30
2017-12-27T15:28:36.382Z,73.40
2017-12-27T15:31:03.947Z,73.00
2017-12-27T15:33:31.507Z,73.10
2017-12-27T15:35:59.785Z,73.30
2017-12-27T15:38:27.339Z,73.00
2017-12-27T15:40:54.905Z,72.70
2017-12-27T15:43:22.492Z,72.50
2017-12-27T15:45:50.055Z,73.80
2017-12-27T15:48:17.616Z,73.80
2017-12-27T15:50:45.187Z,73.40
2017-12-27T15:53:12.800Z,73.30
2017-12-27T15:55:40.358Z,73.40
2017-12-27T15:58:07.938Z,73.90
2017-12-27T16:00:35.494Z,74.00
2017-12-27T16:03:03.035Z,73.90
2017-12-27T16:05:30.587Z,73.90
2017-12-27T16:07:58.136Z,73.50
2017-12-27T16:10:27.131Z,74.10
2017-12-27T16:12:54.677Z,74.10
2017-12-27T16:15:22.241Z,74.10
2017-12-27T16:17:49.806Z,73.90
2017-12-27T16:20:17.381Z,74.20
2017-12-27T16:22:44.942Z,74.60
2017-12-27T16:25:12.515Z,74.40
2017-12-27T16:27:40.097Z,74.40
2017-12-27T16:30:07.653Z,74.30
2017-12-27T16:32:36.870Z,74.70
2017-12-27T16:35:04.456Z,74.80
2017-12-27T16:37:32.154Z,74.60
2017-12-27T16:40:00.000Z,74.50
2017-12-27T16:42:27.588Z,74.70
2017-12-27T16:44:55.154Z,74.70
2017-12-27T16:47:22.724Z,74.60
2017-12-27T16:49:50.264Z,74.80
2017-12-27T16:52:17.816Z,74.70
2017-12-27T16:54:45.401Z,74.90
2017-12-27T16:57:12.962Z,75.10
2017-12-27T16:59:40.524Z,75.20
2017-12-27T17:02:08.081Z,75.50
2017-12-27T17:04:36.680Z,75.60
2017-12-27T17:07:04.990Z,75.80
2017-12-27T17:09:32.575Z,75.80
2017-12-27T17:12:00.115Z,75.90
2017-12-27T17:14:27.664Z,75.90
2017-12-27T17:16:55.522Z,75.80
2017-12-27T17:19:23.846Z,76.30
2017-12-27T17:21:52.068Z,76.30
2017-12-27T17:24:19.605Z,76.50
2017-12-27T17:26:47.166Z,76.70
2017-12-27T17:29:14.730Z,76.60
2017-12-27T17:31:42.328Z,76.40
2017-12-27T17:34:09.882Z,76.80
2017-12-27T17:36:37.475Z,77.00
2017-12-27T17:39:05.029Z,77.10
2017-12-27T17:41:32.595Z,76.70
2017-12-27T17:44:00.943Z,76.40
2017-12-27T17:46:28.486Z,76.40
2017-12-27T17:48:56.821Z,76.40
2017-12-27T17:51:24.375Z,76.50
2017-12-27T17:53:51.959Z,76.90
2017-12-27T17:56:19.548Z,76.10
2017-12-27T17:58:47.881Z,75.90
2017-12-27T18:01:15.436Z,75.90
2017-12-27T18:03:42.982Z,75.80
2017-12-27T18:06:10.561Z,75.70
2017-12-27T18:08:38.120Z,76.00
2017-12-27T18:11:05.751Z,76.00
2017-12-27T18:13:33.297Z,76.40
2017-12-27T18:16:00.884Z,76.60
2017-12-27T18:18:28.440Z,76.60
2017-12-27T18:20:56.027Z,77.30
2017-12-27T18:23:23.567Z,78.00
2017-12-27T18:25:51.142Z,78.20
2017-12-27T18:28:18.694Z,78.50
2017-12-27T18:30:46.246Z,79.00
2017-12-27T18:33:13.814Z,79.50
2017-12-27T18:35:41.388Z,79.40
2017-12-27T18:38:08.951Z,79.50
2017-12-27T18:40:36.519Z,79.60
2017-12-27T18:43:04.087Z,79.70
2017-12-27T18:45:32.415Z,79.90
2017-12-27T18:47:59.991Z,79.80
2017-12-27T18:50:27.569Z,80.00
2017-12-27T18:52:55.144Z,80.70
2017-12-27T18:55:23.471Z,79.90
2017-12-27T18:57:51.028Z,80.00
2017-12-27T19:00:18.600Z,79.90
2017-12-27T19:02:46.168Z,80.10
2017-12-27T19:05:13.757Z,80.10
2017-12-27T19:07:42.101Z,80.30
2017-12-27T19:10:09.665Z,80.20
2017-12-27T19:12:37.224Z,80.20
2017-12-27T19:15:04.776Z,80.10
2017-12-27T19:17:32.424Z,80.30
2017-12-27T19:19:59.985Z,80.10
2017-12-27T19:22:27.913Z,80.30
2017-12-27T19:24:56.246Z,80.50
2017-12-27T19:27:23.831Z,81.10
2017-12-27T19:29:51.386Z,80.50
2017-12-27T19:32:18.943Z,80.50
2017-12-27T19:34:46.565Z,80.40
2017-12-27T19:37:14.116Z,80.30
2017-12-27T19:39:41.827Z,80.30
2017-12-27T19:42:09.392Z,80.20
2017-12-27T19:44:36.970Z,80.30
2017-12-27T19:47:05.294Z,80.50
2017-12-27T19:49:32.865Z,80.60
2017-12-27T19:52:00.407Z,80.40
2017-12-27T19:54:27.980Z,80.60
2017-12-27T19:56:55.534Z,80.50
2017-12-27T19:59:23.099Z,80.60
2017-12-27T20:01:50.686Z,80.80
2017-12-27T20:04:18.224Z,80.80
2017-12-27T20:06:45.778Z,80.90
2017-12-27T20:09:13.323Z,80.90
2017-12-27T20:11:40.912Z,81.10
2017-12-27T20:14:08.485Z,81.10
2017-12-27T20:16:36.079Z,81.00
2017-12-27T20:19:03.637Z,81.00
2017-12-27T20:21:31.206Z,81.00
2017-12-27T20:23:58.767Z,81.10
2017-12-27T20:26:26.311Z,81.10
2017-12-27T20:28:53.870Z,81.40
2017-12-27T20:31:21.425Z,81.30
2017-12-27T20:33:49.788Z,81.30
2017-12-27T20:36:18.095Z,81.40
2017-12-27T20:38:45.686Z,81.40
2017-12-27T20:41:13.255Z,81.30
2017-12-27T20:43:40.834Z,81.30
2017-12-27T20:46:08.380Z,81.30
2017-12-27T20:48:35.961Z,81.30
2017-12-27T20:51:04.325Z,81.20
2017-12-27T20:53:31.902Z,81.20
2017-12-27T20:56:00.255Z,81.50
2017-12-27T20:58:28.049Z,81.50
2017-12-27T21:00:56.379Z,81.40
2017-12-27T21:03:23.928Z,81.30
2017-12-27T21:05:51.488Z,81.30
2017-12-27T21:08:19.028Z,81.20
2017-12-27T21:10:46.585Z,81.40
2017-12-27T21:13:14.153Z,81.70
2017-12-27T21:15:41.711Z,81.50
2017-12-27T21:18:09.273Z,81.30
2017-12-27T21:20:36.846Z,81.30
2017-12-27T21:23:04.423Z,80.90
2017-12-27T21:25:31.985Z,80.90
2017-12-27T21:27:59.563Z,80.90
2017-12-27T21:30:27.134Z,81.00
2017-12-27T21:32:55.477Z,81.00
2017-12-27T21:35:23.030Z,81.00
2017-12-27T21:37:50.586Z,80.80
2017-12-27T21:40:18.161Z,80.80
2017-12-27T21:42:45.725Z,80.80
2017-12-27T21:45:13.354Z,80.80
2017-12-27T21:47:46.743Z,80.80
2017-12-27T21:50:14.729Z,80.80
2017-12-27T21:52:42.267Z,81.30
2017-12-27T21:55:09.915Z,80.60
2017-12-27T21:57:37.701Z,80.70
2017-12-27T22:00:11.115Z,80.60
2017-12-27T22:02:38.684Z,80.60
2017-12-27T22:05:06.270Z,80.70
2017-12-27T22:07:33.851Z,80.50
2017-12-27T22:10:02.180Z,80.20
2017-12-27T22:12:29.764Z,80.20
2017-12-27T22:14:57.344Z,80.30
2017-12-27T22:17:25.707Z,80.30
2017-12-27T22:19:53.278Z,80.30
2017-12-27T22:22:21.610Z,80.10
2017-12-27T22:24:49.171Z,80.10
2017-12-27T22:27:16.731Z,80.10
2017-12-27T22:29:44.311Z,80.20
2017-12-27T22:32:11.865Z,79.90
2017-12-27T22:34:39.429Z,79.70
2017-12-27T22:37:06.999Z,79.70
2017-12-27T22:39:34.570Z,79.70
2017-12-27T22:42:02.900Z,79.60
2017-12-27T22:44:30.496Z,79.60
2017-12-27T22:46:58.058Z,79.70
2017-12-27T22:49:25.598Z,79.70
2017-12-27T22:51:53.147Z,79.70
2017-12-27T22:54:20.721Z,79.70
2017-12-27T22:56:48.296Z,79.80
2017-12-27T22:59:15.859Z,79.80
2017-12-27T23:01:43.430Z,79.70
2017-12-27T23:04:11.759Z,79.80
2017-12-27T23:06:39.317Z,79.80
2017-12-27T23:09:06.894Z,79.90
2017-12-27T23:11:34.454Z,79.90
2017-12-27T23:14:06.921Z,79.80
2017-12-27T23:16:37.576Z,79.80
2017-12-27T23:19:05.501Z,79.80
2017-12-27T23:21:33.071Z,79.60
2017-12-27T23:24:00.624Z,79.60
2017-12-27T23:26:28.162Z,79.70
2017-12-27T23:28:55.726Z,79.50
2017-12-27T23:31:23.274Z,79.60
2017-12-27T23:33:50.844Z,79.60
2017-12-27T23:36:18.386Z,80.10
2017-12-27T23:38:46.709Z,79.70
2017-12-27T23:41:14.278Z,79.80
2017-12-27T23:43:41.824Z,79.70
2017-12-27T23:46:09.416Z,79.50
2017-12-27T23:48:36.987Z,79.60
2017-12-27T23:51:05.321Z,79.60
2017-12-27T23:53:32.883Z,79.60
2017-12-27T23:56:00.505Z,79.60
2017-12-27T23:58:28.047Z,79.70
